Time;durP1;ratioP1;P1;durP2;ratioP2;P2;SDS_P1;SDS_P2;PMS_P1;PMS_P2;Temp;Humidity;BMP_temperature;BMP_pressure;BME280_temperature;BME280_humidity;BME280_pressure;Samples;Min_cycle;Max_cycle;Signal;HPM_P1;HPM_P2
2021/12/23 00:01:58;;;;;;;26.55;14.82;;;1.40;99.90;;;;;;4132646;28;20069;-63
2021/12/23 00:03:59;;;;;;;22.65;13.60;;;1.40;99.90;;;;;;4135147;28;20069;-63
2021/12/23 00:06:00;;;;;;;29.38;15.30;;;1.40;99.90;;;;;;4134858;28;20027;-63
2021/12/23 00:08:00;;;;;;;30.70;14.27;;;1.40;99.90;;;;;;4134234;28;20084;-63
2021/12/23 00:10:06;;;;;;;21.75;13.35;;;1.40;99.90;;;;;;4140302;28;20451;-63
2021/12/23 00:12:07;;;;;;;24.10;14.27;;;1.40;99.90;;;;;;4137514;28;20030;-63
2021/12/23 00:14:10;;;;;;;23.85;14.25;;;1.40;99.90;;;;;;4139971;28;20406;-63
2021/12/23 00:16:18;;;;;;;;;;;1.40;99.90;;;;;;4139879;28;20477;-63
2021/12/23 00:18:41;;;;;;;28.02;13.30;;;1.40;99.90;;;;;;4145334;28;20391;-63
2021/12/23 00:24:58;;;;;;;25.83;15.10;;;1.30;99.90;;;;;;4144969;28;20065;-63
2021/12/23 00:26:59;;;;;;;25.20;15.18;;;1.30;99.90;;;;;;4140972;28;20037;-63
2021/12/23 00:29:00;;;;;;;26.77;14.25;;;1.40;99.90;;;;;;4140342;28;20408;-63
2021/12/23 00:31:01;;;;;;;23.50;13.73;;;1.30;99.90;;;;;;4138171;28;20030;-63
2021/12/23 00:33:01;;;;;;;25.95;14.63;;;1.30;99.90;;;;;;4144446;28;20469;-63
2021/12/23 00:35:03;;;;;;;28.73;15.05;;;1.40;99.90;;;;;;4141847;28;20064;-64
2021/12/23 00:37:09;;;;;;;24.10;14.32;;;1.40;99.90;;;;;;4143986;28;20087;-63
2021/12/23 00:39:10;;;;;;;27.77;15.10;;;1.40;99.90;;;;;;4144151;28;20038;-63
2021/12/23 00:41:13;;;;;;;28.27;14.90;;;1.40;99.90;;;;;;4131277;28;20030;-63
2021/12/23 00:43:13;;;;;;;;;;;1.40;99.90;;;;;;4144238;28;20026;-63
2021/12/23 00:45:14;;;;;;;32.28;15.20;;;1.40;99.90;;;;;;4143036;28;19928;-64
2021/12/23 00:47:15;;;;;;;26.52;14.38;;;1.40;99.90;;;;;;4137466;28;20466;-63
2021/12/23 00:49:15;;;;;;;29.92;15.40;;;1.40;99.90;;;;;;4142768;28;20042;-63
2021/12/23 00:51:16;;;;;;;27.27;14.82;;;1.30;99.90;;;;;;4138952;28;20041;-63
2021/12/23 00:53:19;;;;;;;25.20;14.45;;;1.40;99.90;;;;;;4133345;28;20026;-63
2021/12/23 00:55:21;;;;;;;26.60;15.73;;;1.40;99.90;;;;;;4143054;28;20116;-64
2021/12/23 00:57:27;;;;;;;28.65;15.93;;;1.30;99.90;;;;;;4137864;28;20108;-64
2021/12/23 00:59:27;;;;;;;27.75;15.88;;;1.30;99.90;;;;;;4132893;28;20029;-63
2021/12/23 01:01:28;;;;;;;24.85;14.20;;;1.30;99.90;;;;;;4138609;28;20461;-64
2021/12/23 01:03:30;;;;;;;24.50;14.15;;;1.40;99.90;;;;;;4139761;28;20037;-63
2021/12/23 01:05:30;;;;;;;28.98;17.17;;;1.40;99.90;;;;;;4143045;28;20040;-64
2021/12/23 01:07:31;;;;;;;27.35;15.23;;;1.40;99.90;;;;;;4146056;28;20037;-63
2021/12/23 01:09:32;;;;;;;28.48;15.23;;;1.30;99.90;;;;;;4140416;28;20500;-63
2021/12/23 01:11:32;;;;;;;25.70;15.32;;;1.40;99.90;;;;;;4138022;28;20112;-64
2021/12/23 01:13:33;;;;;;;24.60;14.15;;;1.30;99.90;;;;;;4140086;28;20532;-63
2021/12/23 01:17:54;;;;;;;;;;;1.40;99.90;;;;;;4139364;28;20031;-63
2021/12/23 01:19:56;;;;;;;23.13;13.57;;;1.40;99.90;;;;;;4122119;28;19972;-63
2021/12/23 01:21:57;;;;;;;;;;;1.40;99.90;;;;;;4144322;28;20034;-62
2021/12/23 01:23:57;;;;;;;25.95;14.70;;;1.50;99.90;;;;;;4138605;28;19916;-63
2021/12/23 01:25:58;;;;;;;26.55;14.60;;;1.50;99.90;;;;;;4144485;28;20033;-63
2021/12/23 01:27:59;;;;;;;26.52;14.68;;;1.50;99.90;;;;;;4141341;28;20042;-62
2021/12/23 01:30:02;;;;;;;26.40;15.48;;;1.50;99.90;;;;;;4144272;28;20402;-63
2021/12/23 01:32:05;;;;;;;26.00;15.18;;;1.50;99.90;;;;;;4138487;28;20065;-63
2021/12/23 01:34:06;;;;;;;26.85;15.13;;;1.50;99.90;;;;;;4139004;28;20038;-63
2021/12/23 01:36:07;;;;;;;29.92;16.52;;;1.50;99.90;;;;;;4139958;28;20084;-63
2021/12/23 01:38:08;;;;;;;23.70;13.98;;;1.50;99.90;;;;;;4139873;28;20038;-63
2021/12/23 01:40:11;;;;;;;27.15;14.27;;;1.50;99.90;;;;;;4138223;28;20034;-64
2021/12/23 01:42:11;;;;;;;26.85;14.65;;;1.60;99.90;;;;;;4141741;28;20062;-63
2021/12/23 01:44:12;;;;;;;24.80;14.55;;;1.60;99.90;;;;;;4145520;28;20030;-63
2021/12/23 01:46:13;;;;;;;29.50;15.52;;;1.50;99.90;;;;;;4139853;28;20038;-63
2021/12/23 01:48:17;;;;;;;26.67;14.57;;;1.50;99.90;;;;;;4147762;28;20062;-63
2021/12/23 01:50:23;;;;;;;28.35;16.30;;;1.50;99.90;;;;;;4137757;28;20026;-63
2021/12/23 01:52:25;;;;;;;28.67;16.42;;;1.60;99.90;;;;;;4137786;28;20042;-63
2021/12/23 01:54:25;;;;;;;28.60;16.23;;;1.50;99.90;;;;;;4142513;28;20034;-63
2021/12/23 01:56:27;;;;;;;25.52;15.30;;;1.50;99.90;;;;;;4144092;28;20077;-63
2021/12/23 01:58:28;;;;;;;24.95;14.48;;;1.50;99.90;;;;;;4140727;28;20120;-63
2021/12/23 02:00:33;;;;;;;27.95;16.15;;;1.50;99.90;;;;;;4138336;28;20030;-63
2021/12/23 02:02:34;;;;;;;28.45;15.95;;;1.50;99.90;;;;;;4144818;28;20388;-63
2021/12/23 02:04:34;;;;;;;29.40;16.05;;;1.50;99.90;;;;;;4136508;28;20062;-62
2021/12/23 02:06:35;;;;;;;28.42;15.30;;;1.60;99.90;;;;;;4137019;28;20062;-63
2021/12/23 02:08:37;;;;;;;29.23;16.35;;;1.60;99.90;;;;;;4137437;28;20049;-62
2021/12/23 02:10:40;;;;;;;29.60;16.38;;;1.50;99.90;;;;;;4129726;28;20039;-63
2021/12/23 02:12:43;;;;;;;27.95;15.93;;;1.50;99.90;;;;;;4144313;28;20065;-63
2021/12/23 02:14:44;;;;;;;28.13;16.20;;;1.50;99.90;;;;;;4138690;28;20106;-63
2021/12/23 02:16:44;;;;;;;27.55;15.38;;;1.50;99.90;;;;;;4137701;28;20030;-63
2021/12/23 02:18:45;;;;;;;29.27;16.48;;;1.50;99.90;;;;;;4139177;28;20598;-63
2021/12/23 02:20:46;;;;;;;26.38;15.05;;;1.50;99.90;;;;;;4138169;28;20050;-63
2021/12/23 02:22:47;;;;;;;26.27;15.55;;;1.50;99.90;;;;;;4141175;28;20053;-63
2021/12/23 02:24:48;;;;;;;29.33;16.17;;;1.60;99.90;;;;;;4141379;28;20066;-63
2021/12/23 02:26:48;;;;;;;27.02;15.07;;;1.60;99.90;;;;;;4143391;28;20030;-63
2021/12/23 02:28:49;;;;;;;27.23;15.68;;;1.60;99.90;;;;;;4138160;28;20401;-63
2021/12/23 02:30:51;;;;;;;28.77;15.38;;;1.60;99.90;;;;;;4139133;28;20038;-63
2021/12/23 02:32:53;;;;;;;31.65;16.80;;;1.60;99.90;;;;;;4148169;28;20026;-63
2021/12/23 02:34:53;;;;;;;25.80;15.70;;;1.60;99.90;;;;;;4140013;28;20038;-63
2021/12/23 02:36:59;;;;;;;30.67;16.42;;;1.60;99.90;;;;;;4130555;28;20084;-62
2021/12/23 02:39:00;;;;;;;25.02;14.82;;;1.60;99.90;;;;;;4133561;28;20362;-63
2021/12/23 02:41:01;;;;;;;29.05;17.10;;;1.60;99.90;;;;;;4137325;28;20026;-63
2021/12/23 02:43:15;;;;;;;31.65;17.88;;;1.60;99.90;;;;;;4138787;28;20057;-63
2021/12/23 02:45:16;;;;;;;27.55;15.77;;;1.60;99.90;;;;;;4138292;28;20038;-63
2021/12/23 02:47:18;;;;;;;26.23;16.65;;;1.60;99.90;;;;;;4135343;28;20042;-63
2021/12/23 02:49:19;;;;;;;31.15;17.48;;;1.70;99.90;;;;;;4137481;28;20132;-63
2021/12/23 02:51:19;;;;;;;31.13;16.85;;;1.70;99.90;;;;;;4141611;28;20026;-63
2021/12/23 02:53:20;;;;;;;28.90;16.17;;;1.60;99.90;;;;;;4142719;28;20437;-63
2021/12/23 02:55:21;;;;;;;31.88;16.17;;;1.60;99.90;;;;;;4140792;28;20034;-63
2021/12/23 02:57:21;;;;;;;27.73;16.02;;;1.60;99.90;;;;;;4138563;28;20503;-63
2021/12/23 02:59:22;;;;;;;27.05;15.40;;;1.60;99.90;;;;;;4139293;28;20044;-63
2021/12/23 03:01:24;;;;;;;28.60;15.80;;;1.70;99.90;;;;;;4140489;28;20105;-63
2021/12/23 03:03:25;;;;;;;32.53;16.70;;;1.70;99.90;;;;;;4143264;28;20022;-63
2021/12/23 03:05:26;;;;;;;27.55;16.27;;;1.70;99.90;;;;;;4141018;28;20652;-63
2021/12/23 03:07:26;;;;;;;28.13;15.48;;;1.70;99.90;;;;;;4144192;28;20026;-63
2021/12/23 03:09:27;;;;;;;25.45;15.90;;;1.70;99.90;;;;;;4142342;28;20532;-63
2021/12/23 03:11:29;;;;;;;28.33;15.45;;;1.70;99.90;;;;;;4141868;28;20030;-63
2021/12/23 03:13:30;;;;;;;30.73;16.33;;;1.80;99.90;;;;;;4138447;28;20034;-63
2021/12/23 03:15:30;;;;;;;29.48;16.48;;;1.80;99.90;;;;;;4134177;28;20061;-63
2021/12/23 03:17:31;;;;;;;25.02;15.38;;;1.80;99.90;;;;;;4135831;28;20061;-63
2021/12/23 03:19:32;;;;;;;26.58;15.32;;;1.80;99.90;;;;;;4138038;28;20054;-63
2021/12/23 03:21:34;;;;;;;28.67;16.83;;;1.80;99.90;;;;;;4133430;28;20575;-63
2021/12/23 03:23:35;;;;;;;27.02;15.27;;;1.80;99.90;;;;;;4137499;28;20030;-63
2021/12/23 03:25:36;;;;;;;27.70;15.70;;;1.80;99.90;;;;;;4135487;28;20038;-63
2021/12/23 03:27:37;;;;;;;30.40;17.00;;;1.80;99.90;;;;;;4137229;28;20035;-63
2021/12/23 03:29:38;;;;;;;30.55;16.63;;;1.80;99.90;;;;;;4132955;28;20046;-63
2021/12/23 03:31:39;;;;;;;30.23;16.23;;;1.80;99.90;;;;;;4134732;28;20061;-63
2021/12/23 03:33:39;;;;;;;25.75;15.02;;;1.80;99.90;;;;;;4135037;28;20026;-63
2021/12/23 03:35:40;;;;;;;29.38;15.80;;;1.80;99.90;;;;;;4136676;28;20096;-63
2021/12/23 03:37:41;;;;;;;28.98;16.70;;;1.90;99.90;;;;;;4135522;28;20418;-63
2021/12/23 03:39:42;;;;;;;27.75;16.10;;;1.90;99.90;;;;;;4137260;28;20116;-63
2021/12/23 03:41:42;;;;;;;28.50;16.67;;;1.90;99.90;;;;;;4135920;28;20034;-62
2021/12/23 03:43:43;;;;;;;28.83;15.35;;;1.80;99.90;;;;;;4136340;28;20026;-62
2021/12/23 03:45:47;;;;;;;31.75;17.95;;;1.80;99.90;;;;;;4135425;28;20535;-63
2021/12/23 03:47:49;;;;;;;26.15;15.30;;;1.80;99.90;;;;;;4137870;28;20041;-63
2021/12/23 03:49:50;;;;;;;31.25;16.85;;;1.80;99.90;;;;;;4138407;28;20037;-63
2021/12/23 03:51:51;;;;;;;26.42;15.27;;;1.80;99.90;;;;;;4136958;28;20030;-63
2021/12/23 03:53:51;;;;;;;31.08;16.70;;;1.90;99.90;;;;;;4138113;28;20038;-63
2021/12/23 03:55:52;;;;;;;28.17;16.38;;;1.80;99.90;;;;;;4135244;28;20381;-63
2021/12/23 03:57:53;;;;;;;27.05;15.73;;;1.90;99.90;;;;;;4140194;28;20130;-63
2021/12/23 03:59:53;;;;;;;30.95;17.58;;;1.90;99.90;;;;;;4139826;28;20481;-62
2021/12/23 04:01:54;;;;;;;28.88;15.70;;;1.90;99.90;;;;;;4137847;28;20485;-62
2021/12/23 04:03:55;;;;;;;28.77;16.08;;;1.90;99.90;;;;;;4138980;28;20038;-63
2021/12/23 04:05:56;;;;;;;30.17;16.70;;;1.90;99.90;;;;;;4137746;28;20113;-63
2021/12/23 04:07:56;;;;;;;27.30;16.23;;;1.90;99.90;;;;;;4135673;28;20054;-63
2021/12/23 04:09:57;;;;;;;27.42;16.05;;;1.90;99.90;;;;;;4139261;28;20112;-63
2021/12/23 04:11:58;;;;;;;30.92;17.65;;;1.90;99.90;;;;;;4136828;28;20058;-63
2021/12/23 04:13:58;;;;;;;27.85;16.45;;;1.90;99.90;;;;;;4136076;28;20366;-64
2021/12/23 04:15:59;;;;;;;27.55;15.55;;;1.90;99.90;;;;;;4137212;28;20026;-63
2021/12/23 04:18:00;;;;;;;28.35;16.35;;;1.90;99.90;;;;;;4137516;28;20027;-63
2021/12/23 04:20:14;;;;;;;27.27;16.60;;;1.90;99.90;;;;;;4136487;28;20050;-63
2021/12/23 04:22:15;;;;;;;29.50;17.17;;;1.90;99.90;;;;;;4136866;28;20022;-64
2021/12/23 04:24:15;;;;;;;27.23;16.25;;;1.80;99.90;;;;;;4119523;28;20511;-61
2021/12/23 04:26:16;;;;;;;29.00;16.77;;;1.90;99.90;;;;;;4133258;28;20057;-63
2021/12/23 04:28:18;;;;;;;28.90;16.63;;;1.90;99.90;;;;;;4137848;28;20074;-63
2021/12/23 04:30:19;;;;;;;29.10;16.45;;;1.80;99.90;;;;;;4119473;28;20034;-63
2021/12/23 04:32:20;;;;;;;29.25;16.75;;;1.80;99.90;;;;;;4137882;28;20039;-62
2021/12/23 04:34:21;;;;;;;29.17;16.55;;;1.80;99.90;;;;;;4140569;28;20425;-64
2021/12/23 04:36:25;;;;;;;29.85;15.90;;;1.80;99.90;;;;;;4121619;28;20068;-63
2021/12/23 04:38:26;;;;;;;30.23;16.60;;;1.90;99.90;;;;;;4138267;28;20046;-62
2021/12/23 04:40:30;;;;;;;31.63;17.40;;;1.80;99.90;;;;;;4140041;28;20409;-63
2021/12/23 04:42:30;;;;;;;37.10;17.83;;;1.80;99.90;;;;;;4119236;28;20494;-63
2021/12/23 04:44:31;;;;;;;30.95;16.73;;;1.80;99.90;;;;;;4138697;28;20041;-63
2021/12/23 04:46:32;;;;;;;31.50;17.33;;;1.70;99.90;;;;;;4135739;28;20372;-63
2021/12/23 04:48:33;;;;;;;29.95;16.67;;;1.70;99.90;;;;;;4137458;28;20057;-63
2021/12/23 04:50:33;;;;;;;30.13;16.23;;;1.70;99.90;;;;;;4135425;28;20030;-63
2021/12/23 04:52:35;;;;;;;32.97;17.60;;;1.70;99.90;;;;;;4137215;28;20044;-63
2021/12/23 04:54:36;;;;;;;29.17;17.85;;;1.70;99.90;;;;;;4138971;28;20472;-63
2021/12/23 04:56:37;;;;;;;28.23;16.02;;;1.70;99.90;;;;;;4137696;28;20019;-63
2021/12/23 04:58:37;;;;;;;30.90;16.65;;;1.60;99.90;;;;;;4137971;28;20050;-63
2021/12/23 05:00:41;;;;;;;30.90;17.33;;;1.60;99.90;;;;;;4099483;29;20039;-63
2021/12/23 05:02:42;;;;;;;28.40;16.98;;;1.60;99.90;;;;;;4138893;28;20094;-63
2021/12/23 05:04:43;;;;;;;28.77;16.52;;;1.60;99.90;;;;;;4139479;28;20030;-62
2021/12/23 05:06:43;;;;;;;29.77;17.25;;;1.60;99.90;;;;;;4132891;28;20117;-62
2021/12/23 05:08:44;;;;;;;30.55;16.55;;;1.60;99.90;;;;;;4136967;28;20026;-62
2021/12/23 05:10:45;;;;;;;31.17;16.80;;;1.60;99.90;;;;;;4136426;28;20062;-63
2021/12/23 05:12:47;;;;;;;33.75;19.15;;;1.60;99.90;;;;;;4136021;28;20042;-63
2021/12/23 05:14:47;;;;;;;33.20;17.45;;;1.50;99.90;;;;;;4140841;28;20130;-63
2021/12/23 05:16:48;;;;;;;33.92;18.27;;;1.50;99.90;;;;;;4137996;28;20030;-63
2021/12/23 05:18:49;;;;;;;31.50;17.20;;;1.50;99.90;;;;;;4138259;28;20080;-63
2021/12/23 05:20:49;;;;;;;31.85;16.42;;;1.50;99.90;;;;;;4137548;28;20030;-63
2021/12/23 05:22:50;;;;;;;32.55;17.70;;;1.50;99.90;;;;;;4136133;28;20033;-63
2021/12/23 05:24:52;;;;;;;30.02;17.70;;;1.50;99.90;;;;;;4138090;28;20042;-63
2021/12/23 05:26:52;;;;;;;32.33;18.67;;;1.40;99.90;;;;;;4136511;28;20038;-63
2021/12/23 05:28:53;;;;;;;34.35;19.20;;;1.40;99.90;;;;;;4135559;28;20041;-64
2021/12/23 05:30:54;;;;;;;30.65;18.00;;;1.40;99.90;;;;;;4117417;28;20027;-62
2021/12/23 05:32:55;;;;;;;31.17;17.45;;;1.40;99.90;;;;;;4134809;28;20030;-63
2021/12/23 05:34:56;;;;;;;30.88;16.83;;;1.40;99.90;;;;;;4139424;28;20030;-61
2021/12/23 05:36:58;;;;;;;32.45;17.77;;;1.40;99.90;;;;;;4137757;28;20039;-62
2021/12/23 05:38:59;;;;;;;30.63;17.80;;;1.40;99.90;;;;;;4140000;28;20030;-61
2021/12/23 05:41:00;;;;;;;32.72;17.38;;;1.40;99.90;;;;;;4135867;28;20028;-63
2021/12/23 05:43:01;;;;;;;29.63;18.02;;;1.40;99.90;;;;;;4136600;28;20098;-63
2021/12/23 05:45:01;;;;;;;31.27;17.27;;;1.50;99.90;;;;;;4135843;28;20030;-62
2021/12/23 05:47:03;;;;;;;30.73;17.63;;;1.50;99.90;;;;;;4138100;28;20409;-62
2021/12/23 05:49:03;;;;;;;37.07;17.80;;;1.50;99.90;;;;;;4140312;28;20049;-62
2021/12/23 05:51:04;;;;;;;29.77;16.83;;;1.50;99.90;;;;;;4135875;28;20034;-62
2021/12/23 05:53:05;;;;;;;30.33;17.52;;;1.50;99.90;;;;;;4140716;28;20037;-62
2021/12/23 05:55:07;;;;;;;29.40;17.65;;;1.60;99.90;;;;;;4137496;28;20370;-62
2021/12/23 05:57:08;;;;;;;30.10;17.38;;;1.60;99.90;;;;;;4143324;28;20031;-61
2021/12/23 05:59:09;;;;;;;25.27;15.93;;;1.60;99.90;;;;;;4141396;28;20109;-62
2021/12/23 06:01:09;;;;;;;35.90;18.08;;;1.60;99.90;;;;;;4143016;28;20038;-62
2021/12/23 06:03:10;;;;;;;28.40;16.67;;;1.60;99.90;;;;;;4133730;28;20389;-62
2021/12/23 06:05:12;;;;;;;30.85;17.67;;;1.60;99.90;;;;;;4139121;28;20026;-63
2021/12/23 06:07:12;;;;;;;33.17;18.30;;;1.60;99.90;;;;;;4138938;28;20473;-60
2021/12/23 06:09:13;;;;;;;26.67;15.77;;;1.60;99.90;;;;;;4137854;28;20045;-62
2021/12/23 06:11:14;;;;;;;26.75;16.77;;;1.70;99.90;;;;;;4140043;28;20057;-61
2021/12/23 06:13:14;;;;;;;30.65;18.20;;;1.60;99.90;;;;;;4139851;28;20030;-62
2021/12/23 06:15:15;;;;;;;31.48;18.70;;;1.60;99.90;;;;;;4137777;28;20079;-62
2021/12/23 06:17:16;;;;;;;34.03;17.65;;;1.60;99.90;;;;;;4143732;28;20034;-61
2021/12/23 06:19:17;;;;;;;30.00;17.08;;;1.60;99.90;;;;;;4140012;28;20047;-62
2021/12/23 06:21:17;;;;;;;28.65;17.02;;;1.60;99.90;;;;;;4131096;28;20089;-61
2021/12/23 06:23:18;;;;;;;30.70;17.38;;;1.60;99.90;;;;;;4130567;28;20056;-62
2021/12/23 06:25:19;;;;;;;30.85;17.70;;;1.60;99.90;;;;;;4131011;28;20038;-62
2021/12/23 06:27:20;;;;;;;32.70;17.45;;;1.60;99.90;;;;;;4131279;28;20078;-62
2021/12/23 06:29:21;;;;;;;29.85;16.80;;;1.60;99.90;;;;;;4112841;28;20469;-63
2021/12/23 06:31:21;;;;;;;28.73;16.35;;;1.60;99.90;;;;;;4132613;28;20030;-63
2021/12/23 06:33:22;;;;;;;27.90;17.00;;;1.70;99.90;;;;;;4132607;28;20034;-63
2021/12/23 06:35:28;;;;;;;28.63;16.73;;;1.70;99.90;;;;;;4132370;28;20532;-63
2021/12/23 06:37:28;;;;;;;27.92;16.52;;;1.70;99.90;;;;;;4131107;28;20034;-63
2021/12/23 06:39:30;;;;;;;32.90;17.92;;;1.70;99.90;;;;;;4131582;28;20101;-63
2021/12/23 06:41:31;;;;;;;30.08;16.20;;;1.70;99.90;;;;;;4131395;28;20040;-63
2021/12/23 06:43:32;;;;;;;29.23;17.70;;;1.70;99.90;;;;;;4132114;28;20144;-63
2021/12/23 06:45:33;;;;;;;32.00;17.02;;;1.80;99.90;;;;;;4131768;28;20486;-64
2021/12/23 06:47:34;;;;;;;30.75;16.50;;;1.80;99.90;;;;;;4133121;28;20053;-63
2021/12/23 06:49:35;;;;;;;30.52;17.23;;;1.80;99.90;;;;;;4112247;28;20513;-63
2021/12/23 06:51:36;;;;;;;27.27;16.17;;;1.80;99.90;;;;;;4113954;28;20242;-63
2021/12/23 06:53:37;;;;;;;30.13;17.05;;;1.80;99.90;;;;;;4133404;28;20034;-63
2021/12/23 06:55:38;;;;;;;31.60;17.45;;;1.80;99.90;;;;;;4132004;28;20578;-63
2021/12/23 06:57:41;;;;;;;31.42;17.60;;;1.80;99.90;;;;;;4132047;28;20050;-63
2021/12/23 06:59:41;;;;;;;29.30;16.50;;;1.80;99.90;;;;;;4131858;28;20109;-63
2021/12/23 07:01:43;;;;;;;26.73;15.57;;;1.90;99.90;;;;;;4131346;28;20038;-61
2021/12/23 07:04:06;;;;;;;28.30;16.17;;;1.90;99.90;;;;;;4133269;28;20621;-63
2021/12/23 07:06:07;;;;;;;31.10;17.45;;;2.00;99.90;;;;;;4133667;28;20058;-63
2021/12/23 07:08:13;;;;;;;33.45;18.42;;;1.90;99.90;;;;;;4112931;28;20042;-62
2021/12/23 07:10:14;;;;;;;29.92;17.23;;;2.00;99.90;;;;;;4128117;28;20473;-62
2021/12/23 07:12:15;;;;;;;33.20;18.63;;;2.00;99.90;;;;;;4130609;28;20030;-63
2021/12/23 07:14:15;;;;;;;31.15;17.95;;;2.00;99.90;;;;;;4129881;28;20061;-62
2021/12/23 07:16:16;;;;;;;28.40;17.05;;;2.00;99.90;;;;;;4127881;28;20132;-66
2021/12/23 07:18:17;;;;;;;29.33;17.70;;;2.00;99.90;;;;;;4113726;28;20460;-63
2021/12/23 07:20:18;;;;;;;32.58;17.25;;;2.00;99.90;;;;;;4129500;28;20055;-63
2021/12/23 07:22:18;;;;;;;29.65;16.13;;;2.00;99.90;;;;;;4130619;28;20053;-64
2021/12/23 07:24:19;;;;;;;27.65;16.55;;;2.10;99.90;;;;;;4132574;28;20508;-63
2021/12/23 07:26:20;;;;;;;31.52;17.27;;;2.00;99.90;;;;;;4132028;28;20031;-63
2021/12/23 07:28:20;;;;;;;30.95;17.80;;;2.10;99.90;;;;;;4131183;28;20497;-61
2021/12/23 07:30:22;;;;;;;30.48;17.25;;;2.00;99.90;;;;;;4131659;28;20038;-63
2021/12/23 07:32:22;;;;;;;32.17;17.00;;;2.10;99.90;;;;;;4131997;28;20057;-64
2021/12/23 07:34:24;;;;;;;31.65;16.60;;;2.10;99.90;;;;;;4131314;28;20034;-62
2021/12/23 07:36:27;;;;;;;29.45;17.95;;;2.10;99.90;;;;;;4131430;28;20378;-63
2021/12/23 07:38:27;;;;;;;30.50;16.88;;;2.10;99.90;;;;;;4130116;28;20038;-63
2021/12/23 07:40:29;;;;;;;32.63;17.50;;;2.20;99.90;;;;;;4128395;28;20034;-63
2021/12/23 07:42:32;;;;;;;27.02;16.25;;;2.10;99.90;;;;;;4131395;28;20034;-63
2021/12/23 07:44:33;;;;;;;;;;;2.20;99.90;;;;;;4131625;28;20029;-64
2021/12/23 07:46:36;;;;;;;33.17;17.35;;;2.20;99.90;;;;;;4131370;28;19914;-63
2021/12/23 07:48:36;;;;;;;30.50;17.48;;;2.20;99.90;;;;;;4131320;28;20034;-63
2021/12/23 07:50:40;;;;;;;31.63;17.00;;;2.20;99.90;;;;;;4130366;28;20124;-63
2021/12/23 07:52:41;;;;;;;33.03;18.15;;;2.20;99.90;;;;;;4131650;28;20046;-63
2021/12/23 07:54:42;;;;;;;34.42;19.85;;;2.20;99.90;;;;;;4131768;28;20042;-63
2021/12/23 07:56:43;;;;;;;33.88;19.40;;;2.20;99.90;;;;;;4131455;28;20409;-64
2021/12/23 07:58:44;;;;;;;37.67;19.92;;;2.00;99.90;;;;;;4132524;28;20041;-64
2021/12/23 08:00:45;;;;;;;36.58;19.67;;;2.00;99.90;;;;;;4131893;28;20037;-63
2021/12/23 08:02:46;;;;;;;34.10;18.88;;;2.10;99.90;;;;;;4128000;28;20034;-64
2021/12/23 08:04:46;;;;;;;33.55;19.25;;;2.00;99.90;;;;;;4131682;28;20120;-64
2021/12/23 08:06:52;;;;;;;34.40;18.67;;;2.00;99.90;;;;;;4132440;28;20058;-64
2021/12/23 08:08:53;;;;;;;32.15;18.45;;;2.00;99.90;;;;;;4131781;28;20070;-64
2021/12/23 08:10:54;;;;;;;34.83;19.60;;;2.00;99.90;;;;;;4132226;28;20065;-63
2021/12/23 08:12:54;;;;;;;34.50;19.52;;;2.00;99.90;;;;;;4132944;28;20027;-64
2021/12/23 08:14:55;;;;;;;31.58;18.08;;;2.00;99.90;;;;;;4132602;28;20026;-63
2021/12/23 08:16:56;;;;;;;31.83;17.35;;;1.90;99.90;;;;;;4130780;28;20038;-64
2021/12/23 08:18:56;;;;;;;31.17;17.83;;;2.00;99.90;;;;;;4131345;28;20058;-64
2021/12/23 08:20:58;;;;;;;35.17;18.10;;;2.00;99.90;;;;;;4131504;28;20117;-63
2021/12/23 08:22:58;;;;;;;34.42;18.13;;;2.00;99.90;;;;;;4131846;28;20054;-63
2021/12/23 08:24:59;;;;;;;33.75;18.50;;;2.10;99.90;;;;;;4127760;28;20034;-64
2021/12/23 08:27:00;;;;;;;30.58;18.35;;;2.10;99.90;;;;;;4111967;28;20035;-63
2021/12/23 08:29:01;;;;;;;31.88;17.70;;;2.10;99.90;;;;;;4132766;28;20389;-64
2021/12/23 08:31:01;;;;;;;30.85;17.73;;;2.20;99.90;;;;;;4132469;28;20030;-64
2021/12/23 08:33:02;;;;;;;33.60;18.05;;;2.10;99.90;;;;;;4131513;28;20026;-63
2021/12/23 08:35:03;;;;;;;32.58;17.67;;;2.20;99.90;;;;;;4134060;28;20278;-64
2021/12/23 08:37:11;;;;;;;33.55;18.60;;;2.20;99.90;;;;;;4132255;28;20043;-63
2021/12/23 08:39:11;;;;;;;31.67;17.42;;;2.20;99.90;;;;;;4132482;28;20508;-63
2021/12/23 08:41:12;;;;;;;32.83;17.77;;;2.20;99.90;;;;;;4131371;28;20057;-63
2021/12/23 08:43:13;;;;;;;30.30;17.50;;;2.20;99.90;;;;;;4130448;28;20126;-63
2021/12/23 08:45:15;;;;;;;32.05;17.70;;;2.30;99.90;;;;;;4130326;28;20057;-62
2021/12/23 08:47:16;;;;;;;29.40;16.92;;;2.30;99.90;;;;;;4131383;28;20038;-63
2021/12/23 08:49:17;;;;;;;29.98;17.23;;;2.30;99.90;;;;;;4130521;28;20393;-63
2021/12/23 08:51:17;;;;;;;31.98;17.88;;;2.30;99.90;;;;;;4129551;28;20034;-63
2021/12/23 08:53:18;;;;;;;31.83;17.55;;;2.30;99.90;;;;;;4130565;28;20027;-63
2021/12/23 08:55:20;;;;;;;32.03;17.42;;;2.30;99.90;;;;;;4129374;28;20095;-62
2021/12/23 08:57:20;;;;;;;31.90;18.90;;;2.30;99.90;;;;;;4129963;28;20355;-63
2021/12/23 08:59:21;;;;;;;31.63;18.48;;;2.40;99.90;;;;;;4312241;22;20122;-62
2021/12/23 09:01:23;;;;;;;32.65;17.67;;;2.40;99.90;;;;;;4127031;28;20038;-62
2021/12/23 09:03:23;;;;;;;36.42;19.38;;;2.40;99.90;;;;;;4351498;22;20074;-63
2021/12/23 09:05:24;;;;;;;34.40;19.35;;;2.40;99.90;;;;;;4144477;28;20030;-65
2021/12/23 09:07:25;;;;;;;32.40;17.75;;;2.40;99.90;;;;;;4144389;28;20056;-64
2021/12/23 09:09:25;;;;;;;29.58;17.88;;;2.50;99.90;;;;;;4145546;28;20547;-65
2021/12/23 09:11:26;;;;;;;31.67;18.63;;;2.50;99.90;;;;;;4143634;28;20036;-65
2021/12/23 09:13:27;;;;;;;35.58;19.95;;;2.50;99.90;;;;;;4144434;28;20436;-64
2021/12/23 09:15:28;;;;;;;33.13;19.08;;;2.50;99.90;;;;;;4142857;28;20069;-63
2021/12/23 09:17:29;;;;;;;34.03;19.63;;;2.60;99.90;;;;;;4144737;28;20060;-64
2021/12/23 09:19:30;;;;;;;35.17;19.70;;;2.60;99.90;;;;;;4144872;28;20029;-64
2021/12/23 09:21:31;;;;;;;33.83;18.58;;;2.60;99.90;;;;;;4143670;28;20037;-63
2021/12/23 09:23:32;;;;;;;32.90;19.00;;;2.60;99.90;;;;;;4144543;28;20480;-63
2021/12/23 09:25:33;;;;;;;30.77;18.42;;;2.50;99.90;;;;;;4143455;28;20112;-64
2021/12/23 09:27:41;;;;;;;31.90;18.73;;;2.60;99.90;;;;;;4143348;28;20037;-64
2021/12/23 09:34:04;;;;;;;33.88;18.88;;;2.60;99.90;;;;;;4145520;28;20026;-64
2021/12/23 09:36:05;;;;;;;31.30;17.30;;;2.60;99.90;;;;;;4141941;28;20065;-64
2021/12/23 09:38:07;;;;;;;33.88;18.45;;;2.60;99.90;;;;;;4143643;28;20774;-63
2021/12/23 09:40:08;;;;;;;34.17;18.05;;;2.60;99.90;;;;;;4142153;28;20451;-64
2021/12/23 09:42:08;;;;;;;34.80;19.65;;;2.60;99.90;;;;;;4144054;28;20072;-63
2021/12/23 09:44:10;;;;;;;29.83;17.95;;;2.60;99.90;;;;;;4144721;28;20030;-64
2021/12/23 09:46:14;;;;;;;33.03;19.08;;;2.60;99.90;;;;;;4143395;28;20140;-64
2021/12/23 09:48:16;;;;;;;32.30;17.90;;;2.60;99.90;;;;;;4143855;28;20045;-63
2021/12/23 09:50:22;;;;;;;32.33;18.40;;;2.70;99.90;;;;;;4143343;28;20419;-64
2021/12/23 09:52:23;;;;;;;35.85;19.27;;;2.70;99.90;;;;;;4160589;28;20506;-64
2021/12/23 09:54:56;;;;;;;33.72;18.95;;;2.70;99.90;;;;;;4336234;22;20114;-62
2021/12/23 09:56:57;;;;;;;39.97;20.17;;;2.80;99.90;;;;;;4103670;28;20103;-64
2021/12/23 10:01:17;;;;;;;36.65;20.83;;;2.80;99.90;;;;;;4197114;22;20079;-68
2021/12/23 10:03:21;;;;;;;34.90;19.65;;;2.80;99.90;;;;;;4172213;28;20041;-68
2021/12/23 10:05:29;;;;;;;42.13;21.02;;;2.80;99.90;;;;;;4150591;28;20033;-69
2021/12/23 10:07:30;;;;;;;36.67;19.92;;;2.80;99.90;;;;;;4173049;28;20025;-69
2021/12/23 10:09:44;;;;;;;38.03;21.85;;;2.80;99.90;;;;;;4167612;28;20534;-67
2021/12/23 10:37:15;;;;;;;38.10;20.52;;;3.20;99.90;;;;;;4165579;28;20821;-67
2021/12/23 10:39:24;;;;;;;38.13;20.50;;;3.20;99.90;;;;;;4166478;28;20037;-66
2021/12/23 10:41:28;;;;;;;30.88;18.52;;;3.30;99.90;;;;;;4168421;28;20025;-68
2021/12/23 10:43:33;;;;;;;38.00;20.45;;;3.30;99.90;;;;;;4164392;28;20030;-67
2021/12/23 10:45:46;;;;;;;39.72;19.83;;;3.30;99.90;;;;;;4165140;28;20044;-68
2021/12/23 10:50:34;;;;;;;35.35;20.38;;;3.40;99.90;;;;;;4167269;28;20060;-68
2021/12/23 10:52:46;;;;;;;34.30;19.15;;;3.40;99.90;;;;;;4166119;28;20029;-67
2021/12/23 10:59:17;;;;;;;36.78;19.52;;;3.60;99.90;;;;;;4168348;28;20083;-67
2021/12/23 11:01:18;;;;;;;35.22;19.45;;;3.60;99.90;;;;;;4166613;28;20128;-66
2021/12/23 11:03:30;;;;;;;38.05;20.02;;;3.60;99.90;;;;;;4166090;28;20509;-66
2021/12/23 11:05:36;;;;;;;36.80;19.65;;;3.60;99.90;;;;;;4165323;28;20116;-67
2021/12/23 11:07:47;;;;;;;34.40;19.33;;;3.60;99.90;;;;;;4167039;28;20103;-67
2021/12/23 11:10:24;;;;;;;33.95;18.65;;;3.70;99.90;;;;;;4166505;28;20534;-66
2021/12/23 11:37:48;;;;;;;32.50;18.40;;;3.80;99.90;;;;;;4166800;28;20032;-66
2021/12/23 11:40:03;;;;;;;32.28;17.40;;;3.90;99.90;;;;;;4161914;28;20040;-66